| time (UTC) | temp F | wind direction | speed MPH | gust MPH | rain 1hr in | rain 24hr in | rain mn in | humidity % | barometer mb |
| 20260903123142 | 64 | 217 | 0.0 | 4.0 | 0.00 | 0.93 | 0.08 | 97 | 1015.4 |
| 20260903121547 | 64 | 268 | 0.0 | 4.0 | 0.00 | 0.93 | 0.08 | 97 | 1015.4 |
| 20260903120042 | 65 | 230 | 0.0 | 5.0 | 0.00 | 0.93 | 0.08 | 97 | 1015.1 |
| 20260903114545 | 64 | 254 | 0.0 | 4.0 | 0.00 | 0.93 | 0.08 | 97 | 1015.1 |
| 20260903113141 | 64 | 266 | 0.0 | 3.0 | 0.00 | 0.93 | 0.08 | 97 | 1014.7 |
| 20260903111548 | 64 | 224 | 0.0 | 2.0 | 0.00 | 0.93 | 0.08 | 97 | 1014.6 |
| 20260903110111 | 64 | 224 | 0.0 | 2.0 | 0.00 | 0.93 | 0.08 | 97 | 1014.4 |
| 20260903104547 | 64 | 224 | 0.0 | 0.0 | 0.00 | 0.93 | 0.08 | 97 | 1014.2 |
| 20260903103145 | 64 | 224 | 0.0 | 0.0 | 0.00 | 0.94 | 0.08 | 97 | 1014.0 |
| 20260903101557 | 64 | 224 | 0.0 | 0.0 | 0.01 | 0.94 | 0.08 | 97 | 1013.8 |
| 20260903100051 | 64 | 224 | 0.0 | 0.0 | 0.03 | 0.94 | 0.08 | 97 | 1013.6 |
| 20260903094554 | 64 | 224 | 0.0 | 1.0 | 0.03 | 0.94 | 0.08 | 97 | 1013.5 |
| 20260903093145 | 65 | 241 | 0.0 | 5.0 | 0.03 | 0.94 | 0.08 | 97 | 1013.7 |
| 20260903091539 | 65 | 306 | 0.0 | 5.0 | 0.03 | 0.93 | 0.07 | 97 | 1014.5 |
| 20260903090039 | 65 | 242 | 1.0 | 6.0 | 0.02 | 0.92 | 0.06 | 97 | 1015.1 |
| 20260903084538 | 65 | 182 | 0.0 | 3.0 | 0.01 | 0.91 | 0.05 | 97 | 1014.8 |
| 20260903083138 | 65 | 262 | 0.0 | 6.0 | 0.02 | 0.91 | 0.05 | 97 | 1014.8 |
| 20260903081542 | 65 | 306 | 3.0 | 11.0 | 0.01 | 0.90 | 0.04 | 97 | 1013.6 |
| 20260903080035 | 65 | 221 | 1.0 | 9.0 | 0.01 | 0.90 | 0.04 | 97 | 1014.2 |
| 20260903074539 | 65 | 173 | 2.0 | 7.0 | 0.04 | 0.90 | 0.04 | 97 | 1013.6 |
| 20260903073132 | 65 | 199 | 1.0 | 5.0 | 0.04 | 0.89 | 0.03 | 97 | 1015.0 |
| 20260903071533 | 65 | 252 | 1.0 | 9.0 | 0.04 | 0.89 | 0.03 | 97 | 1015.3 |
| 20260903070035 | 65 | 223 | 1.0 | 6.0 | 0.04 | 0.89 | 0.03 | 97 | 1014.7 |
| 20260903064522 | 65 | 242 | 0.0 | 4.0 | 0.01 | 0.86 | 0.00 | 97 | 1015.8 |
| 20260903063121 | 65 | 225 | 2.0 | 7.0 | 0.00 | 0.85 | 0.85 | 97 | 1015.5 |
| 20260903061532 | 65 | 211 | 0.0 | 4.0 | 0.01 | 0.85 | 0.85 | 97 | 1014.8 |
| 20260903060025 | 65 | 171 | 0.0 | 4.0 | 0.02 | 0.85 | 0.85 | 97 | 1014.5 |
| 20260903054540 | 64 | 171 | 0.0 | 1.0 | 0.04 | 0.85 | 0.85 | 96 | 1014.8 |
| 20260903053125 | 65 | 171 | 0.0 | 5.0 | 0.37 | 0.85 | 0.85 | 97 | 1014.3 |
| 20260903051529 | 65 | 180 | 2.0 | 5.0 | 0.36 | 0.84 | 0.84 | 96 | 1014.8 |
| 20260903050028 | 65 | 186 | 0.0 | 5.0 | 0.36 | 0.84 | 0.84 | 97 | 1016.2 |
| 20260903044527 | 66 | 234 | 0.0 | 3.0 | 0.34 | 0.82 | 0.82 | 97 | 1016.1 |
| 20260903043128 | 65 | 5 | 0.0 | 2.0 | 0.00 | 0.48 | 0.48 | 97 | 1016.7 |
| 20260903041528 | 65 | 105 | 0.0 | 2.0 | 0.00 | 0.48 | 0.48 | 96 | 1015.7 |
| 20260903040023 | 65 | 105 | 0.0 | 0.0 | 0.00 | 0.48 | 0.48 | 96 | 1016.0 |
| 20260903034524 | 65 | 135 | 1.0 | 4.0 | 0.00 | 0.48 | 0.48 | 96 | 1015.9 |
| 20260903033123 | 66 | 20 | 0.0 | 2.0 | 0.00 | 0.48 | 0.48 | 96 | 1015.6 |
| 20260903031523 | 66 | 112 | 0.0 | 3.0 | 0.01 | 0.48 | 0.48 | 96 | 1015.6 |
| 20260903030036 | 66 | 174 | 1.0 | 6.0 | 0.25 | 0.48 | 0.48 | 96 | 1016.1 |
| 20260903024535 | 66 | 252 | 1.0 | 4.0 | 0.25 | 0.48 | 0.48 | 96 | 1016.3 |
| 20260903023122 | 66 | 188 | 0.0 | 5.0 | 0.25 | 0.48 | 0.48 | 95 | 1016.5 |
| 20260903021531 | 66 | 51 | 0.0 | 7.0 | 0.25 | 0.48 | 0.48 | 94 | 1015.5 |
| 20260903020027 | 69 | 31 | 7.0 | 18.0 | 0.02 | 0.23 | 0.23 | 96 | 1015.4 |
| 20260903014524 | 69 | 221 | 1.0 | 11.0 | 0.03 | 0.23 | 0.23 | 96 | 1015.0 |
| 20260903013123 | 70 | 225 | 2.0 | 9.0 | 0.03 | 0.23 | 0.23 | 96 | 1016.4 |
| 20260903011539 | 70 | 288 | 1.0 | 7.0 | 0.03 | 0.23 | 0.23 | 96 | 1015.9 |
| 20260903010028 | 70 | 221 | 1.0 | 5.0 | 0.02 | 0.22 | 0.22 | 95 | 1014.9 |
| 20260903004532 | 70 | 179 | 0.0 | 5.0 | 0.00 | 0.20 | 0.20 | 95 | 1015.0 |
| 20260903003127 | 71 | 208 | 1.0 | 9.0 | 0.00 | 0.20 | 0.20 | 95 | 1014.1 |
| 20260903001518 | 71 | 279 | 0.0 | 4.0 | 0.00 | 0.20 | 0.20 | 94 | 1013.5 |
| 20260903000017 | 71 | 195 | 1.0 | 4.0 | 0.00 | 0.20 | 0.20 | 94 | 1014.5 |
| 20260902234516 | 72 | 281 | 1.0 | 5.0 | 0.00 | 0.20 | 0.20 | 94 | 1014.9 |
| 20260902233116 | 72 | 231 | 0.0 | 4.0 | 0.00 | 0.20 | 0.20 | 93 | 1014.9 |
| 20260902231517 | 72 | 213 | 0.0 | 7.0 | 0.00 | 0.20 | 0.20 | 93 | 1014.9 |
| 20260902230014 | 73 | 223 | 1.0 | 10.0 | 0.00 | 0.20 | 0.20 | 93 | 1014.3 |
| 20260902224514 | 73 | 161 | 4.0 | 10.0 | 0.00 | 0.20 | 0.20 | 91 | 1013.9 |
| 20260902223131 | 74 | 157 | 2.0 | 9.0 | 0.00 | 0.23 | 0.20 | 90 | 1014.2 |
| 20260902221516 | 74 | 257 | 3.0 | 9.0 | 0.00 | 0.23 | 0.20 | 89 | 1014.4 |
| 20260902220010 | 76 | 200 | 1.0 | 6.0 | 0.00 | 0.23 | 0.20 | 87 | 1014.4 |
| 20260902214508 | 75 | 220 | 1.0 | 6.0 | 0.00 | 0.23 | 0.20 | 87 | 1014.6 |
| 20260902213107 | 76 | 198 | 2.0 | 6.0 | 0.00 | 0.23 | 0.20 | 86 | 1014.8 |
| 20260902211504 | 76 | 184 | 2.0 | 6.0 | 0.00 | 0.23 | 0.20 | 85 | 1015.0 |
| 20260902210004 | 76 | 169 | 1.0 | 6.0 | 0.00 | 0.23 | 0.20 | 87 | 1015.0 |
| 20260902204502 | 76 | 186 | 0.0 | 4.0 | 0.00 | 0.23 | 0.20 | 86 | 1015.2 |
| 20260902203104 | 76 | 198 | 0.0 | 4.0 | 0.01 | 0.23 | 0.20 | 88 | 1015.4 |
| 20260902201503 | 76 | 227 | 2.0 | 6.0 | 0.01 | 0.23 | 0.20 | 86 | 1015.4 |
| 20260902200002 | 76 | 177 | 0.0 | 5.0 | 0.01 | 0.23 | 0.20 | 89 | 1015.5 |
| 20260902194600 | 75 | 227 | 1.0 | 5.0 | 0.01 | 0.23 | 0.20 | 92 | 1015.4 |
| 20260902193054 | 73 | 227 | 0.0 | 3.0 | 0.01 | 0.23 | 0.20 | 95 | 1015.8 |
| 20260902191553 | 72 | 240 | 0.0 | 5.0 | 0.00 | 0.22 | 0.19 | 97 | 1015.9 |
| 20260902190048 | 70 | 196 | 0.0 | 2.0 | 0.00 | 0.22 | 0.19 | 97 | 1016.1 |
| 20260902184546 | 70 | 197 | 0.0 | 2.0 | 0.00 | 0.22 | 0.19 | 97 | 1016.6 |
| 20260902183051 | 69 | 176 | 0.0 | 3.0 | 0.00 | 0.22 | 0.19 | 97 | 1016.6 |
| 20260902181542 | 69 | 308 | 0.0 | 1.0 | 0.00 | 0.22 | 0.19 | 97 | 1016.3 |
| 20260902180051 | 69 | 252 | 0.0 | 3.0 | 0.00 | 0.22 | 0.19 | 97 | 1016.3 |
| 20260902174541 | 69 | 247 | 0.0 | 6.0 | 0.00 | 0.22 | 0.19 | 97 | 1016.6 |
| 20260902173041 | 69 | 224 | 1.0 | 5.0 | 0.00 | 0.22 | 0.19 | 97 | 1015.7 |
| 20260902171601 | 69 | 209 | 0.0 | 3.0 | 0.00 | 0.22 | 0.19 | 97 | 1015.7 |
| 20260902170051 | 69 | 160 | 1.0 | 4.0 | 0.00 | 0.22 | 0.19 | 97 | 1015.8 |
| 20260902164557 | 69 | 191 | 1.0 | 5.0 | 0.00 | 0.22 | 0.19 | 97 | 1016.2 |
| 20260902163050 | 69 | 232 | 1.0 | 4.0 | 0.00 | 0.22 | 0.19 | 98 | 1016.7 |
| 20260902161541 | 68 | 246 | 0.0 | 6.0 | 0.00 | 0.22 | 0.19 | 97 | 1016.9 |
| 20260902160039 | 68 | 227 | 0.0 | 6.0 | 0.00 | 0.22 | 0.19 | 97 | 1016.9 |
| 20260902154550 | 68 | 149 | 1.0 | 8.0 | 0.00 | 0.22 | 0.19 | 97 | 1017.0 |
| 20260902153039 | 67 | 211 | 0.0 | 4.0 | 0.00 | 0.22 | 0.19 | 97 | 1016.8 |
| 20260902151538 | 67 | 294 | 0.0 | 1.0 | 0.02 | 0.22 | 0.19 | 97 | 1016.8 |
| 20260902150035 | 67 | 294 | 0.0 | 0.0 | 0.08 | 0.22 | 0.19 | 97 | 1016.9 |
| 20260902144538 | 67 | 294 | 0.0 | 0.0 | 0.14 | 0.22 | 0.19 | 97 | 1017.1 |
| 20260902143033 | 67 | 294 | 0.0 | 1.0 | 0.16 | 0.22 | 0.19 | 97 | 1017.0 |
| 20260902141535 | 67 | 294 | 0.0 | 3.0 | 0.17 | 0.21 | 0.18 | 97 | 1016.9 |
| 20260902140038 | 67 | 211 | 0.0 | 2.0 | 0.13 | 0.17 | 0.14 | 97 | 1016.9 |
| 20260902134531 | 67 | 211 | 0.0 | 0.0 | 0.05 | 0.09 | 0.06 | 97 | 1017.1 |
| 20260902133030 | 67 | 211 | 0.0 | 1.0 | 0.03 | 0.07 | 0.04 | 97 | 1016.9 |
| 20260902131529 | 66 | 211 | 0.0 | 4.0 | 0.01 | 0.05 | 0.02 | 97 | 1017.1 |
| 20260902130027 | 66 | 205 | 0.0 | 3.0 | 0.00 | 0.04 | 0.01 | 97 | 1017.1 |
| 20260902124531 | 66 | 195 | 2.0 | 7.0 | 0.00 | 0.04 | 0.01 | 97 | 1016.7 |